createdAt,value
2022-09-07T00:01:05.717Z,16.90
2022-09-07T00:03:32.425Z,16.90
2022-09-07T00:05:59.841Z,16.90
2022-09-07T00:08:29.845Z,16.90
2022-09-07T00:10:57.658Z,16.80
2022-09-07T00:13:25.158Z,16.70
2022-09-07T00:33:25.255Z,16.80
2022-09-07T00:35:52.146Z,16.80
2022-09-07T00:38:18.782Z,16.80
2022-09-07T00:40:45.486Z,16.80
2022-09-07T00:43:28.974Z,16.90
2022-09-07T00:45:55.647Z,16.90
2022-09-07T00:48:23.941Z,16.90
2022-09-07T00:50:52.575Z,16.90
2022-09-07T00:53:23.419Z,16.80
2022-09-07T00:55:51.031Z,16.80
2022-09-07T00:58:19.391Z,16.80
2022-09-07T01:00:46.750Z,16.70
2022-09-07T01:03:15.087Z,16.70
2022-09-07T01:05:43.891Z,16.70
2022-09-07T01:08:12.128Z,16.70
2022-09-07T01:10:38.856Z,16.70
2022-09-07T01:13:05.693Z,16.70
2022-09-07T01:15:44.781Z,16.60
2022-09-07T01:18:19.684Z,16.60
2022-09-07T01:21:15.687Z,16.60
2022-09-07T01:23:42.333Z,16.60
2022-09-07T01:26:11.935Z,16.50
2022-09-07T01:28:38.892Z,16.50
2022-09-07T01:31:15.765Z,16.50
2022-09-07T01:33:48.446Z,16.50
2022-09-07T01:36:17.875Z,16.50
2022-09-07T01:38:44.505Z,16.50
2022-09-07T01:41:14.153Z,16.50
2022-09-07T01:43:43.716Z,16.60
2022-09-07T01:46:22.612Z,16.60
2022-09-07T01:48:51.206Z,16.60
2022-09-07T01:51:19.200Z,16.60
2022-09-07T01:53:50.666Z,16.60
2022-09-07T01:56:22.343Z,16.60
2022-09-07T01:59:12.351Z,16.60
2022-09-07T02:01:45.975Z,16.60
2022-09-07T02:04:20.609Z,16.60
2022-09-07T02:06:58.599Z,16.70
2022-09-07T02:09:29.187Z,16.60
2022-09-07T02:11:56.109Z,16.70
2022-09-07T02:14:23.054Z,16.70
2022-09-07T02:17:03.447Z,16.70
2022-09-07T02:19:33.689Z,16.80
2022-09-07T02:22:03.234Z,16.80
2022-09-07T02:24:35.239Z,16.90
2022-09-07T02:27:05.485Z,16.90
2022-09-07T02:29:32.678Z,17.00
2022-09-07T02:31:59.403Z,17.00
2022-09-07T02:34:26.243Z,17.00
2022-09-07T02:36:53.505Z,17.00
2022-09-07T02:39:20.293Z,17.10
2022-09-07T02:41:47.055Z,17.10
2022-09-07T02:44:15.481Z,17.10
2022-09-07T02:46:55.692Z,17.20
2022-09-07T02:49:25.199Z,17.20
2022-09-07T02:51:58.101Z,17.20
2022-09-07T02:54:30.554Z,17.20
2022-09-07T02:56:57.187Z,17.30
2022-09-07T02:59:23.832Z,17.30
2022-09-07T03:01:56.615Z,17.30
2022-09-07T03:04:52.641Z,17.30
2022-09-07T03:07:22.538Z,17.30
2022-09-07T03:09:51.227Z,17.30
2022-09-07T03:12:17.948Z,17.40
2022-09-07T03:14:44.864Z,17.40
2022-09-07T03:17:11.790Z,17.40
2022-09-07T03:19:38.477Z,17.40
2022-09-07T03:22:05.471Z,17.40
2022-09-07T03:24:32.169Z,17.40
2022-09-07T03:26:58.857Z,17.40
2022-09-07T03:29:25.585Z,17.30
2022-09-07T03:31:52.263Z,17.30
2022-09-07T03:34:18.914Z,17.30
2022-09-07T03:36:45.572Z,17.40
2022-09-07T03:39:12.476Z,17.30
2022-09-07T03:41:39.153Z,17.40
2022-09-07T03:44:06.704Z,17.70
2022-09-07T03:46:33.638Z,17.30
2022-09-07T03:49:00.472Z,17.30
2022-09-07T03:51:27.192Z,17.40
2022-09-07T03:53:54.380Z,17.40
2022-09-07T03:56:22.194Z,17.50
2022-09-07T03:58:49.339Z,17.50
2022-09-07T04:01:17.387Z,17.60
2022-09-07T04:03:44.672Z,17.70
2022-09-07T04:06:11.934Z,17.70
2022-09-07T04:08:39.244Z,17.60
2022-09-07T04:11:06.931Z,17.80
2022-09-07T04:13:34.894Z,17.80
2022-09-07T04:16:09.304Z,17.90
2022-09-07T04:18:36.274Z,17.80
2022-09-07T04:21:03.180Z,17.80
2022-09-07T04:23:29.839Z,17.80
2022-09-07T04:25:56.496Z,17.70
2022-09-07T04:28:23.326Z,17.80
2022-09-07T04:30:50.101Z,17.80
2022-09-07T04:33:16.914Z,17.90
2022-09-07T04:35:43.656Z,18.00
2022-09-07T04:38:14.389Z,18.00
2022-09-07T04:40:41.388Z,18.00
2022-09-07T04:43:09.556Z,18.00
2022-09-07T04:45:39.436Z,17.90
2022-09-07T04:48:06.476Z,17.90
2022-09-07T04:50:33.159Z,17.90
2022-09-07T04:52:59.821Z,17.80
2022-09-07T04:55:26.501Z,17.90
2022-09-07T04:57:53.173Z,17.90
2022-09-07T05:00:19.889Z,17.90
2022-09-07T05:02:46.617Z,17.80
2022-09-07T05:05:13.424Z,17.80
2022-09-07T05:07:40.101Z,17.70
2022-09-07T05:10:06.929Z,17.60
2022-09-07T05:12:33.637Z,17.60
2022-09-07T05:15:00.399Z,17.60
2022-09-07T05:17:27.184Z,17.60
2022-09-07T05:19:54.900Z,17.60
2022-09-07T05:22:22.323Z,17.60
2022-09-07T05:24:49.088Z,17.60
2022-09-07T05:27:15.751Z,17.80
2022-09-07T05:32:29.810Z,18.70
2022-09-07T05:34:56.519Z,20.40
2022-09-07T05:37:23.357Z,22.10
2022-09-07T05:39:52.351Z,23.80
2022-09-07T05:42:19.154Z,24.50
2022-09-07T05:44:46.117Z,24.70
2022-09-07T05:47:13.253Z,25.80
2022-09-07T05:49:40.326Z,26.50
2022-09-07T05:52:07.365Z,27.90
2022-09-07T05:54:34.049Z,28.30
2022-09-07T05:57:02.957Z,28.60
2022-09-07T05:59:29.635Z,29.50
2022-09-07T06:01:56.400Z,30.40
2022-09-07T06:04:23.212Z,31.10
2022-09-07T06:07:17.765Z,31.30
2022-09-07T06:12:23.676Z,32.10
2022-09-07T06:14:50.351Z,32.20
2022-09-07T06:17:17.014Z,31.80
2022-09-07T06:19:43.660Z,31.90
2022-09-07T06:22:10.319Z,32.30
2022-09-07T06:24:36.947Z,32.80
2022-09-07T06:27:04.578Z,32.00
2022-09-07T06:29:31.300Z,31.10
2022-09-07T06:34:44.682Z,27.10
2022-09-07T06:37:11.722Z,25.30
2022-09-07T06:39:38.456Z,24.40
2022-09-07T06:42:05.191Z,24.90
2022-09-07T06:44:32.124Z,26.10
2022-09-07T06:49:28.405Z,25.40
2022-09-07T06:51:55.542Z,24.50
2022-09-07T06:57:09.699Z,25.10
2022-09-07T06:59:37.019Z,26.10
2022-09-07T07:02:04.110Z,25.60
2022-09-07T07:04:30.881Z,24.50
2022-09-07T07:06:57.546Z,24.10
2022-09-07T07:09:24.334Z,23.70
2022-09-07T07:11:51.053Z,23.40
2022-09-07T07:14:17.998Z,23.10
2022-09-07T07:16:45.596Z,23.10
2022-09-07T07:19:12.309Z,23.20
2022-09-07T07:22:03.593Z,23.30
2022-09-07T07:24:25.809Z,23.40
2022-09-07T07:26:52.611Z,23.60
2022-09-07T07:29:19.364Z,23.70
2022-09-07T07:31:47.040Z,24.10
2022-09-07T07:34:14.799Z,26.30
2022-09-07T07:36:41.525Z,29.00
2022-09-07T07:39:08.494Z,31.30
2022-09-07T07:41:56.503Z,34.00
2022-09-07T07:44:25.576Z,34.50
2022-09-07T07:46:52.365Z,35.60
2022-09-07T07:49:19.170Z,35.70
2022-09-07T07:54:38.653Z,35.40
2022-09-07T07:57:05.960Z,35.80
2022-09-07T07:59:32.752Z,36.10
2022-09-07T08:02:04.543Z,37.50
2022-09-07T08:04:35.190Z,37.80
2022-09-07T08:07:09.224Z,37.50
2022-09-07T08:09:37.987Z,37.00
2022-09-07T08:12:04.672Z,37.40
2022-09-07T08:14:31.598Z,38.50
2022-09-07T08:16:58.239Z,39.20
2022-09-07T08:19:24.910Z,39.20
2022-09-07T08:21:51.548Z,38.90
2022-09-07T08:24:18.123Z,38.40
2022-09-07T08:26:44.824Z,38.80
2022-09-07T08:29:11.517Z,39.50
2022-09-07T08:31:38.193Z,39.90
2022-09-07T08:34:04.920Z,39.40
2022-09-07T08:36:31.971Z,39.10
2022-09-07T08:38:58.631Z,38.90
2022-09-07T08:41:34.148Z,39.00
2022-09-07T08:44:00.743Z,38.70
2022-09-07T08:46:38.421Z,38.70
2022-09-07T08:49:06.160Z,38.40
2022-09-07T08:51:41.984Z,37.50
2022-09-07T08:54:11.818Z,38.10
2022-09-07T08:57:20.466Z,37.80
2022-09-07T08:59:35.679Z,39.20
2022-09-07T09:07:35.468Z,39.70
2022-09-07T09:10:21.044Z,39.70
2022-09-07T09:12:59.613Z,39.50
2022-09-07T09:15:32.248Z,38.80
2022-09-07T09:18:14.818Z,39.00
2022-09-07T09:20:44.649Z,39.10
2022-09-07T09:23:12.696Z,38.40
2022-09-07T09:25:55.449Z,36.60
2022-09-07T09:28:22.463Z,35.50
2022-09-07T09:30:50.034Z,34.90
2022-09-07T09:33:16.679Z,35.30
2022-09-07T09:35:44.117Z,35.40
2022-09-07T09:38:29.255Z,35.40
2022-09-07T09:40:57.036Z,36.30
2022-09-07T09:43:31.262Z,36.90
2022-09-07T09:46:13.651Z,36.30
2022-09-07T09:48:41.569Z,36.90
2022-09-07T09:54:05.920Z,36.70
2022-09-07T09:56:36.292Z,35.30
2022-09-07T10:05:20.832Z,32.60
2022-09-07T10:07:51.984Z,33.10
2022-09-07T10:10:18.727Z,34.70
2022-09-07T10:12:46.006Z,35.40
2022-09-07T10:15:25.355Z,36.40
2022-09-07T10:17:52.127Z,36.50
2022-09-07T10:20:19.985Z,36.10
2022-09-07T10:22:57.072Z,35.70
2022-09-07T10:25:36.974Z,35.70
2022-09-07T10:28:15.579Z,35.10
2022-09-07T10:30:42.290Z,35.40
2022-09-07T10:33:23.990Z,35.10
2022-09-07T10:35:55.120Z,34.80
2022-09-07T10:38:26.011Z,34.70
2022-09-07T10:40:52.642Z,34.00
2022-09-07T10:43:31.508Z,33.60
2022-09-07T10:46:56.334Z,32.80
2022-09-07T10:49:03.417Z,32.80
2022-09-07T10:51:30.056Z,33.20
2022-09-07T10:57:03.635Z,32.90
2022-09-07T11:02:32.213Z,32.30
2022-09-07T11:05:17.573Z,31.80
2022-09-07T11:07:56.125Z,31.50
2022-09-07T11:10:28.509Z,31.50
2022-09-07T11:12:58.060Z,31.20
2022-09-07T11:15:29.913Z,30.50
2022-09-07T11:18:02.754Z,29.90
2022-09-07T11:20:42.489Z,29.90
2022-09-07T11:23:18.612Z,29.80
2022-09-07T11:25:46.665Z,30.10
2022-09-07T11:28:25.786Z,30.20
2022-09-07T11:31:00.377Z,29.80
2022-09-07T11:33:30.143Z,29.70
2022-09-07T11:36:00.971Z,29.60
2022-09-07T11:38:42.793Z,29.60
2022-09-07T11:41:15.216Z,29.40
2022-09-07T11:43:43.897Z,29.60
2022-09-07T11:46:19.454Z,29.90
2022-09-07T11:48:52.419Z,29.90
2022-09-07T11:51:40.056Z,30.30
2022-09-07T11:54:17.060Z,30.20
2022-09-07T11:56:53.231Z,30.60
2022-09-07T11:59:38.711Z,30.50
2022-09-07T12:02:14.618Z,30.50
2022-09-07T12:04:44.186Z,30.70
2022-09-07T12:07:29.148Z,30.30
2022-09-07T12:09:55.757Z,30.00
2022-09-07T12:12:28.404Z,30.10
2022-09-07T12:15:02.821Z,30.30
2022-09-07T12:17:44.598Z,30.30
2022-09-07T12:20:11.300Z,30.10
2022-09-07T12:22:38.110Z,30.20
2022-09-07T12:25:08.705Z,30.20
2022-09-07T12:27:35.276Z,30.10
2022-09-07T12:30:01.887Z,30.50
2022-09-07T12:33:05.849Z,30.40
2022-09-07T12:35:50.522Z,30.20
2022-09-07T12:38:17.125Z,30.60
2022-09-07T12:40:46.885Z,31.00
2022-09-07T12:43:13.613Z,30.90
2022-09-07T12:45:40.255Z,30.80
2022-09-07T12:48:06.889Z,30.90
2022-09-07T12:50:39.134Z,30.60
2022-09-07T12:53:12.945Z,30.70
2022-09-07T12:58:57.560Z,31.00
2022-09-07T13:01:24.210Z,31.30
2022-09-07T13:04:09.512Z,31.30
2022-09-07T13:09:31.682Z,31.20
2022-09-07T13:11:58.804Z,31.10
2022-09-07T13:14:26.731Z,30.50
2022-09-07T13:17:16.600Z,30.30
2022-09-07T13:19:46.508Z,30.20
2022-09-07T13:22:36.210Z,30.10
2022-09-07T13:25:19.168Z,30.20
2022-09-07T13:27:59.800Z,30.00
2022-09-07T13:30:37.247Z,30.10
2022-09-07T13:33:22.113Z,30.30
2022-09-07T13:35:49.824Z,30.40
2022-09-07T13:38:16.797Z,29.80
2022-09-07T13:40:46.019Z,29.70
2022-09-07T13:43:17.948Z,29.70
2022-09-07T13:45:53.733Z,29.90
2022-09-07T13:48:26.603Z,30.10
2022-09-07T13:51:03.586Z,30.20
2022-09-07T13:53:33.344Z,30.10
2022-09-07T13:56:26.197Z,30.00
2022-09-07T13:58:53.621Z,30.20
2022-09-07T14:01:24.859Z,30.20
2022-09-07T14:04:07.572Z,30.10
2022-09-07T14:06:35.127Z,30.10
2022-09-07T14:09:04.126Z,30.10
2022-09-07T14:11:44.408Z,30.10
2022-09-07T14:14:15.318Z,29.90
2022-09-07T14:16:43.802Z,29.50
2022-09-07T14:19:17.097Z,29.10
2022-09-07T14:21:43.859Z,29.00
2022-09-07T14:24:24.707Z,28.90
2022-09-07T14:26:52.917Z,28.90
2022-09-07T14:29:24.115Z,28.80
2022-09-07T14:31:50.996Z,29.00
2022-09-07T14:34:19.270Z,28.90
2022-09-07T14:36:46.898Z,29.00
2022-09-07T14:39:15.455Z,29.00
2022-09-07T14:41:43.001Z,29.00
2022-09-07T14:44:28.644Z,29.20
2022-09-07T14:46:57.289Z,29.20
2022-09-07T14:49:24.278Z,29.10
2022-09-07T14:51:51.853Z,29.10
2022-09-07T14:54:20.152Z,29.10
2022-09-07T14:57:01.007Z,29.10
2022-09-07T14:59:47.456Z,29.10
2022-09-07T15:02:26.946Z,29.00
2022-09-07T15:05:12.594Z,29.00
2022-09-07T15:07:40.157Z,28.90
2022-09-07T15:10:23.117Z,29.20
2022-09-07T15:12:51.075Z,29.30
2022-09-07T15:15:22.096Z,29.50
2022-09-07T15:17:49.220Z,29.60
2022-09-07T15:20:32.397Z,29.50
2022-09-07T15:22:59.527Z,29.20
2022-09-07T15:25:26.150Z,29.10
2022-09-07T15:27:53.880Z,28.80
2022-09-07T15:30:20.478Z,28.70
2022-09-07T15:32:47.136Z,28.40
2022-09-07T15:35:13.877Z,28.50
2022-09-07T15:40:28.459Z,28.50
2022-09-07T15:43:13.696Z,28.40
2022-09-07T15:45:41.899Z,28.40
2022-09-07T15:48:14.181Z,28.40
2022-09-07T15:50:42.051Z,28.40
2022-09-07T15:54:06.646Z,28.50
2022-09-07T15:55:55.426Z,28.60
2022-09-07T15:58:22.091Z,28.70
2022-09-07T16:00:49.114Z,28.70
2022-09-07T16:03:15.910Z,28.50
2022-09-07T16:05:44.136Z,28.50
2022-09-07T16:08:27.618Z,28.40
2022-09-07T16:10:55.768Z,28.40
2022-09-07T16:13:24.273Z,28.50
2022-09-07T16:15:51.165Z,28.60
2022-09-07T16:18:18.650Z,28.50
2022-09-07T16:20:45.275Z,28.50
2022-09-07T16:23:13.971Z,28.40
2022-09-07T16:25:42.306Z,28.40
2022-09-07T16:28:09.442Z,28.20
2022-09-07T16:30:39.004Z,28.10
2022-09-07T16:33:05.769Z,28.00
2022-09-07T16:35:32.978Z,27.90
2022-09-07T16:40:46.679Z,27.80
2022-09-07T16:43:13.299Z,27.70
2022-09-07T16:48:26.537Z,27.70
2022-09-07T16:51:01.607Z,27.80
2022-09-07T16:53:29.831Z,27.70
2022-09-07T16:56:06.477Z,27.70
2022-09-07T16:58:37.602Z,27.40
2022-09-07T17:01:08.292Z,27.40
2022-09-07T17:03:36.643Z,27.30
2022-09-07T17:06:04.210Z,27.20
2022-09-07T17:08:30.861Z,27.20
2022-09-07T17:11:05.249Z,27.10
2022-09-07T17:13:32.394Z,27.00
2022-09-07T17:16:06.252Z,26.80
2022-09-07T17:21:20.550Z,26.50
2022-09-07T17:23:54.412Z,26.30
2022-09-07T17:26:23.243Z,26.20
2022-09-07T17:28:50.790Z,26.20
2022-09-07T17:34:11.598Z,25.80
2022-09-07T17:36:38.240Z,25.70
2022-09-07T17:39:20.321Z,25.50
2022-09-07T17:41:48.514Z,25.40
2022-09-07T17:44:15.459Z,25.30
2022-09-07T17:46:42.230Z,25.20
2022-09-07T17:49:10.119Z,25.10
2022-09-07T17:51:36.792Z,25.00
2022-09-07T17:54:09.566Z,24.80
2022-09-07T17:56:37.017Z,24.80
2022-09-07T18:01:50.570Z,24.60
2022-09-07T18:04:17.444Z,24.50
2022-09-07T18:06:44.116Z,24.40
2022-09-07T18:09:11.208Z,24.30
2022-09-07T18:11:46.846Z,24.20
2022-09-07T18:14:15.125Z,24.00
2022-09-07T18:16:43.326Z,23.90
2022-09-07T18:19:11.096Z,23.90
2022-09-07T18:21:38.436Z,23.90
2022-09-07T18:24:13.507Z,24.10
2022-09-07T18:26:41.019Z,23.80
2022-09-07T18:29:18.926Z,23.70
2022-09-07T18:31:54.587Z,23.60
2022-09-07T18:34:21.253Z,23.40
2022-09-07T18:36:47.905Z,23.30
2022-09-07T18:39:14.675Z,23.20
2022-09-07T18:41:42.182Z,23.20
2022-09-07T18:46:55.807Z,23.10
2022-09-07T18:49:22.453Z,23.10
2022-09-07T18:54:35.680Z,23.00
2022-09-07T18:57:02.282Z,22.80
2022-09-07T18:59:29.854Z,22.40
2022-09-07T19:02:02.991Z,21.90
2022-09-07T19:07:17.594Z,21.40
2022-09-07T19:09:44.242Z,21.20
2022-09-07T19:12:10.933Z,21.00
2022-09-07T19:14:37.662Z,20.90
2022-09-07T19:17:04.461Z,20.90
2022-09-07T19:19:31.101Z,21.00
2022-09-07T19:21:58.307Z,21.00
2022-09-07T19:24:25.752Z,20.90
2022-09-07T19:26:55.714Z,20.60
2022-09-07T19:29:25.157Z,20.50
2022-09-07T19:32:13.442Z,20.30
2022-09-07T19:34:42.102Z,20.10
2022-09-07T19:37:10.043Z,20.00
2022-09-07T19:39:37.051Z,20.00
2022-09-07T19:42:04.288Z,20.00
2022-09-07T19:44:31.155Z,19.90
2022-09-07T19:46:57.809Z,19.90
2022-09-07T19:49:24.470Z,19.80
2022-09-07T19:51:51.977Z,19.70
2022-09-07T19:54:18.939Z,19.60
2022-09-07T19:56:46.019Z,19.60
2022-09-07T19:59:13.182Z,19.60
2022-09-07T20:01:40.694Z,19.60
2022-09-07T20:04:10.513Z,19.60
2022-09-07T20:06:38.128Z,19.60
2022-09-07T20:09:05.524Z,19.60
2022-09-07T20:11:32.763Z,19.60
2022-09-07T20:13:59.373Z,19.60
2022-09-07T20:16:27.268Z,19.60
2022-09-07T20:18:54.161Z,19.60
2022-09-07T20:21:22.079Z,19.50
2022-09-07T20:23:48.800Z,19.50
2022-09-07T20:26:16.755Z,19.50
2022-09-07T20:28:43.516Z,19.50
2022-09-07T20:31:11.752Z,19.50
2022-09-07T20:33:38.442Z,19.40
2022-09-07T20:36:05.257Z,19.30
2022-09-07T20:38:32.339Z,19.30
2022-09-07T20:41:00.625Z,19.20
2022-09-07T20:43:27.296Z,19.20
2022-09-07T20:45:57.633Z,19.20
2022-09-07T20:48:24.330Z,19.20
2022-09-07T20:50:54.188Z,19.30
2022-09-07T20:53:20.820Z,19.40
2022-09-07T20:55:47.447Z,19.30
2022-09-07T20:58:14.049Z,19.30
2022-09-07T21:00:40.684Z,19.30
2022-09-07T21:03:07.322Z,19.30
2022-09-07T21:05:35.267Z,19.40
2022-09-07T21:08:01.988Z,19.30
2022-09-07T21:10:28.703Z,19.40
2022-09-07T21:12:55.453Z,19.40
2022-09-07T21:15:22.109Z,19.30
2022-09-07T21:17:48.752Z,19.40
2022-09-07T21:20:15.778Z,19.40
2022-09-07T21:22:42.433Z,19.30
2022-09-07T21:25:10.568Z,19.30
2022-09-07T21:27:38.687Z,19.30
2022-09-07T21:30:05.950Z,19.30
2022-09-07T21:32:33.192Z,19.20
2022-09-07T21:34:59.777Z,19.20
2022-09-07T21:37:26.771Z,19.10
2022-09-07T21:39:53.590Z,19.10
2022-09-07T21:42:20.212Z,19.10
2022-09-07T21:44:46.904Z,19.10
2022-09-07T21:47:13.599Z,19.00
2022-09-07T21:49:40.209Z,19.00
2022-09-07T21:52:06.946Z,19.00
2022-09-07T21:54:33.529Z,19.00
2022-09-07T21:57:00.103Z,19.00
2022-09-07T21:59:26.693Z,19.10
2022-09-07T22:01:53.408Z,19.00
2022-09-07T22:04:20.180Z,19.10
2022-09-07T22:06:46.880Z,19.10
2022-09-07T22:09:13.518Z,19.10
2022-09-07T22:11:44.053Z,18.70
2022-09-07T22:14:13.076Z,19.10
2022-09-07T22:16:39.716Z,19.00
2022-09-07T22:19:09.222Z,19.00
2022-09-07T22:21:35.834Z,19.00
2022-09-07T22:24:03.875Z,19.00
2022-09-07T22:26:32.121Z,19.00
2022-09-07T22:28:58.972Z,19.00
2022-09-07T22:31:27.154Z,19.10
2022-09-07T22:33:54.613Z,19.00
2022-09-07T22:36:22.650Z,19.10
2022-09-07T22:38:50.457Z,19.10
2022-09-07T22:41:18.783Z,19.10
2022-09-07T22:43:45.779Z,19.10
2022-09-07T22:46:12.765Z,19.10
2022-09-07T22:48:39.934Z,19.10
2022-09-07T22:51:07.454Z,19.00
2022-09-07T22:53:34.800Z,19.10
2022-09-07T22:56:09.013Z,19.10
2022-09-07T22:58:36.145Z,19.00
2022-09-07T23:01:03.356Z,19.00
2022-09-07T23:03:30.772Z,19.00
2022-09-07T23:05:57.505Z,19.00
2022-09-07T23:08:24.428Z,19.00
2022-09-07T23:10:51.866Z,19.00
2022-09-07T23:13:18.708Z,18.90
2022-09-07T23:15:46.077Z,18.90
2022-09-07T23:18:14.126Z,18.90
2022-09-07T23:20:41.252Z,18.90
2022-09-07T23:23:08.205Z,18.80
2022-09-07T23:25:38.364Z,18.80
2022-09-07T23:28:06.267Z,18.80
2022-09-07T23:30:33.349Z,18.80
2022-09-07T23:32:59.986Z,18.80
2022-09-07T23:35:26.633Z,18.80
2022-09-07T23:37:53.837Z,18.70
2022-09-07T23:40:20.675Z,18.70
2022-09-07T23:42:47.543Z,18.80
2022-09-07T23:45:14.221Z,18.80
2022-09-07T23:47:40.949Z,18.70
2022-09-07T23:50:08.141Z,18.60
2022-09-07T23:52:34.852Z,18.60
2022-09-07T23:55:01.522Z,18.50
2022-09-07T23:57:28.191Z,18.50
2022-09-07T23:59:54.872Z,18.50
